Time;durP1;ratioP1;P1;durP2;ratioP2;P2;SDS_P1;SDS_P2;PMS_P1;PMS_P2;Temp;Humidity;BMP_temperature;BMP_pressure;BME280_temperature;BME280_humidity;BME280_pressure;Samples;Min_cycle;Max_cycle;Signal;HPM_P1;HPM_P2
2020/12/20 00:02:19;;;;;;;9.90;6.07;;;5.20;99.90;;;;;;6163666;23;20020;-91
2020/12/20 00:04:47;;;;;;;9.87;6.00;;;5.10;99.90;;;;;;6164210;23;20001;-90
2020/12/20 00:07:17;;;;;;;9.67;6.10;;;5.10;99.90;;;;;;6164158;23;20029;-90
2020/12/20 00:09:49;;;;;;;9.73;6.03;;;5.10;99.90;;;;;;6163774;23;20005;-91
2020/12/20 00:12:18;;;;;;;11.55;6.22;;;5.10;99.90;;;;;;6163043;23;20001;-91
2020/12/20 00:14:49;;;;;;;10.67;6.33;;;5.10;99.90;;;;;;6164521;23;20016;-91
2020/12/20 00:17:19;;;;;;;8.43;5.70;;;5.10;99.90;;;;;;6159515;23;20068;-91
2020/12/20 00:19:55;;;;;;;10.77;6.50;;;5.00;99.90;;;;;;6163937;23;20012;-90
2020/12/20 00:22:31;;;;;;;10.70;6.93;;;5.00;99.90;;;;;;6166262;23;20005;-91
2020/12/20 00:24:58;;;;;;;12.07;6.80;;;5.00;99.90;;;;;;6164317;23;20001;-91
2020/12/20 00:27:28;;;;;;;11.70;6.50;;;5.00;99.90;;;;;;6166166;23;20004;-90
2020/12/20 00:29:57;;;;;;;9.63;5.87;;;4.90;99.90;;;;;;6166221;23;20005;-91
2020/12/20 00:32:23;;;;;;;11.03;6.20;;;4.90;99.90;;;;;;6165549;23;20001;-91
2020/12/20 00:34:50;;;;;;;10.57;6.50;;;4.90;99.90;;;;;;6166121;23;20364;-90
2020/12/20 00:37:20;;;;;;;10.90;6.07;;;4.90;99.90;;;;;;6166677;23;20331;-90
2020/12/20 00:39:47;;;;;;;11.70;6.27;;;4.90;99.90;;;;;;6165231;23;20402;-91
2020/12/20 00:42:18;;;;;;;12.73;6.80;;;5.00;99.90;;;;;;6165412;23;20015;-90
2020/12/20 00:44:51;;;;;;;10.37;6.70;;;4.90;99.90;;;;;;6165365;23;20102;-90
2020/12/20 00:47:26;;;;;;;;;;;4.90;99.90;;;;;;6166544;23;20243;-91
2020/12/20 00:49:52;;;;;;;9.33;5.50;;;4.90;99.90;;;;;;6164143;23;19944;-90
2020/12/20 00:52:21;;;;;;;10.70;6.17;;;4.90;99.90;;;;;;6165158;23;20001;-91
2020/12/20 00:54:51;;;;;;;11.87;6.00;;;5.00;99.90;;;;;;6166495;23;20008;-91
2020/12/20 01:26:49;;;;;;;11.07;5.63;;;5.00;99.90;;;;;;6217662;23;19993;-95
2020/12/20 01:29:24;;;;;;;10.90;6.10;;;5.00;99.90;;;;;;6217087;23;20028;-96
2020/12/20 01:32:12;;;;;;;8.93;6.10;;;5.10;99.90;;;;;;6217070;23;19985;-96
2020/12/20 01:34:45;;;;;;;8.13;5.63;;;5.10;99.90;;;;;;6214135;23;20036;-95
2020/12/20 01:37:10;;;;;;;;;;;5.10;99.90;;;;;;6217179;23;19991;-95
2020/12/20 01:39:40;;;;;;;10.23;5.53;;;5.10;99.90;;;;;;6216731;23;20032;-95
2020/12/20 01:42:45;;;;;;;9.50;5.80;;;5.10;99.90;;;;;;6217308;23;19997;-95
2020/12/20 01:45:30;;;;;;;8.80;5.60;;;5.10;99.90;;;;;;6217674;23;19980;-96
2020/12/20 01:49:01;;;;;;;;;;;;;;;;;;;;;
2020/12/20 01:55:56;;;;;;;;;;;;;;;;;;;;;
2020/12/20 01:58:52;;;;;;;;;;;;;;;;;;;;;
2020/12/20 02:01:48;;;;;;;7.97;5.40;;;5.20;99.90;;;;;;6159763;23;19984;-96
2020/12/20 02:04:19;;;;;;;10.60;5.40;;;5.20;99.90;;;;;;6211089;23;19992;-96
2020/12/20 02:13:57;;;;;;;;;;;;;;;;;;;;;
2020/12/20 02:16:45;;;;;;;8.23;5.33;;;5.30;99.90;;;;;;6207472;23;19980;-96
2020/12/20 02:19:25;;;;;;;8.27;5.40;;;5.20;99.90;;;;;;6206759;23;19985;-96
2020/12/20 02:22:18;;;;;;;8.80;5.50;;;5.30;99.90;;;;;;6216651;23;19988;-95
2020/12/20 02:25:23;;;;;;;9.60;5.30;;;5.30;99.90;;;;;;6215265;23;19989;-95
2020/12/20 02:28:02;;;;;;;9.50;5.53;;;5.30;99.90;;;;;;6217258;23;19981;-93
2020/12/20 02:30:35;;;;;;;9.37;5.40;;;5.30;99.90;;;;;;6214528;23;19993;-94
2020/12/20 02:33:15;;;;;;;9.23;5.53;;;5.30;99.90;;;;;;6217631;23;20008;-95
2020/12/20 02:36:15;;;;;;;;;;;;;;;;;;;;;
2020/12/20 02:38:50;;;;;;;9.17;5.53;;;5.30;99.90;;;;;;6199993;23;19985;-95
2020/12/20 02:45:13;;;;;;;10.43;5.20;;;5.30;99.90;;;;;;6105767;23;20028;-96
2020/12/20 02:47:51;;;;;;;9.00;5.60;;;5.30;99.90;;;;;;6211876;23;20003;-95
2020/12/20 02:50:20;;;;;;;9.67;5.50;;;5.30;99.90;;;;;;6185515;23;20236;-95
2020/12/20 02:53:41;;;;;;;9.50;6.00;;;5.20;99.90;;;;;;6211885;23;19989;-95
2020/12/20 02:56:29;;;;;;;;;;;;;;;;;;;;;
2020/12/20 02:59:40;;;;;;;10.00;6.33;;;5.20;99.90;;;;;;6212092;23;19989;-96
2020/12/20 03:22:59;;;;;;;11.17;6.17;;;5.00;99.90;;;;;;6212255;23;20009;-96
2020/12/20 03:25:25;;;;;;;9.93;6.13;;;5.00;99.90;;;;;;6186343;23;19985;-96
2020/12/20 03:28:20;;;;;;;8.73;5.87;;;5.10;99.90;;;;;;6187394;23;20003;-96
2020/12/20 04:04:28;;;;;;;11.10;6.20;;;5.20;99.90;;;;;;6242947;22;20064;-95
2020/12/20 04:06:57;;;;;;;9.93;6.60;;;5.20;99.90;;;;;;6216743;23;19992;-95
2020/12/20 04:09:23;;;;;;;10.93;6.00;;;5.20;99.90;;;;;;6216631;23;20019;-96
2020/12/20 04:12:01;;;;;;;9.63;6.37;;;5.20;99.90;;;;;;6212582;23;19988;-96
2020/12/20 04:14:30;;;;;;;10.00;5.53;;;5.10;99.90;;;;;;6216928;23;20047;-95
2020/12/20 04:16:56;;;;;;;9.77;6.20;;;5.10;99.90;;;;;;6211800;23;19988;-96
2020/12/20 04:19:36;;;;;;;10.73;5.83;;;5.10;99.90;;;;;;6216629;23;20020;-95
2020/12/20 04:22:13;;;;;;;10.73;6.23;;;5.00;99.90;;;;;;6209535;23;19997;-93
2020/12/20 04:25:09;;;;;;;11.70;6.23;;;5.20;99.90;;;;;;6216981;23;19984;-95
2020/12/20 04:27:53;;;;;;;10.03;6.13;;;5.10;99.90;;;;;;6217040;23;20004;-95
2020/12/20 04:30:22;;;;;;;11.03;6.00;;;5.10;99.90;;;;;;6216700;23;19984;-94
2020/12/20 04:32:48;;;;;;;9.83;6.23;;;5.10;99.90;;;;;;6216884;23;19988;-95
2020/12/20 04:35:14;;;;;;;9.50;5.83;;;5.10;99.90;;;;;;6215746;23;19988;-93
2020/12/20 04:41:00;;;;;;;9.27;5.83;;;5.10;99.90;;;;;;6219218;23;19993;-94
2020/12/20 04:43:33;;;;;;;11.27;6.00;;;5.10;99.90;;;;;;6216343;23;19988;-96
2020/12/20 04:46:04;;;;;;;9.80;5.70;;;5.10;99.90;;;;;;6214655;23;19996;-96
2020/12/20 04:48:39;;;;;;;9.77;5.77;;;5.10;99.90;;;;;;6216588;23;19985;-93
2020/12/20 04:51:10;;;;;;;10.33;5.70;;;5.10;99.90;;;;;;6215516;23;19985;-95
2020/12/20 04:53:36;;;;;;;11.87;6.50;;;5.10;99.90;;;;;;6216116;23;19989;-93
2020/12/20 04:59:38;;;;;;;9.83;5.50;;;5.20;99.90;;;;;;6210660;23;19997;-94
2020/12/20 05:02:14;;;;;;;9.43;5.63;;;5.20;99.90;;;;;;6210276;23;19989;-96
2020/12/20 05:04:49;;;;;;;10.70;5.60;;;5.10;99.90;;;;;;6216096;23;20048;-93
2020/12/20 05:07:15;;;;;;;9.33;5.70;;;5.10;99.90;;;;;;6218379;23;19989;-94
2020/12/20 05:09:48;;;;;;;9.70;6.07;;;5.10;99.90;;;;;;6217587;23;19995;-95
2020/12/20 05:15:24;;;;;;;11.73;6.47;;;5.10;99.90;;;;;;6244665;23;19888;-95
2020/12/20 05:18:14;;;;;;;10.33;6.10;;;5.10;99.90;;;;;;6190010;23;20055;-94
2020/12/20 05:20:48;;;;;;;11.00;6.23;;;5.10;99.90;;;;;;6217848;23;19985;-95
2020/12/20 05:23:17;;;;;;;9.63;5.60;;;5.10;99.90;;;;;;6217812;23;20000;-93
2020/12/20 05:25:47;;;;;;;11.80;5.70;;;5.10;99.90;;;;;;6218083;23;19993;-94
2020/12/20 05:28:21;;;;;;;8.57;5.55;;;5.10;99.90;;;;;;6217950;23;19985;-95
2020/12/20 05:30:51;;;;;;;9.60;5.70;;;5.20;99.90;;;;;;6218187;23;19984;-94
2020/12/20 05:33:27;;;;;;;9.50;6.00;;;5.10;99.90;;;;;;6217720;23;20000;-95
2020/12/20 05:36:24;;;;;;;8.87;5.57;;;5.10;99.90;;;;;;6218091;23;20016;-94
2020/12/20 05:38:53;;;;;;;10.20;6.33;;;5.10;99.90;;;;;;6188473;23;20004;-94
2020/12/20 05:41:37;;;;;;;9.70;5.90;;;5.10;99.90;;;;;;6218205;23;19992;-94
2020/12/20 05:44:30;;;;;;;10.57;5.87;;;5.10;99.90;;;;;;6218472;23;19997;-94
2020/12/20 05:47:05;;;;;;;9.93;6.20;;;5.10;99.90;;;;;;6213792;23;19981;-94
2020/12/20 05:49:38;;;;;;;10.70;5.50;;;5.10;99.90;;;;;;6219101;23;19994;-95
2020/12/20 05:52:11;;;;;;;9.25;5.35;;;5.10;99.90;;;;;;6218098;23;20020;-95
2020/12/20 05:54:42;;;;;;;9.87;6.13;;;5.10;99.90;;;;;;6219364;23;19989;-94
2020/12/20 05:57:19;;;;;;;10.20;5.90;;;5.10;99.90;;;;;;6218544;23;19984;-94
2020/12/20 05:59:46;;;;;;;8.83;5.50;;;5.10;99.90;;;;;;6217314;23;19988;-95
2020/12/20 06:02:13;;;;;;;7.67;5.20;;;5.10;99.90;;;;;;6217223;23;19988;-94
2020/12/20 06:04:40;;;;;;;9.30;5.30;;;5.10;99.90;;;;;;6216949;23;19989;-94
2020/12/20 06:07:10;;;;;;;8.57;5.30;;;5.10;99.90;;;;;;6216915;23;19985;-92
2020/12/20 06:09:58;;;;;;;8.50;5.30;;;5.10;99.90;;;;;;6216402;23;19985;-94
2020/12/20 06:12:30;;;;;;;8.97;5.30;;;5.10;99.90;;;;;;6214940;23;19987;-93
2020/12/20 06:14:58;;;;;;;9.38;5.60;;;5.10;99.90;;;;;;6217459;23;20000;-93
2020/12/20 06:17:25;;;;;;;10.90;5.70;;;5.00;99.90;;;;;;6216818;23;19996;-94
2020/12/20 06:19:57;;;;;;;8.60;5.30;;;5.10;99.90;;;;;;6216177;23;19989;-95
2020/12/20 06:22:23;;;;;;;9.23;5.70;;;5.00;99.90;;;;;;6216653;23;19993;-93
2020/12/20 06:24:51;;;;;;;10.03;5.73;;;5.00;99.90;;;;;;6216618;23;19987;-93
2020/12/20 06:28:15;;;;;;;;;;;;;;;;;;;;;
2020/12/20 06:30:41;;;;;;;9.00;5.70;;;5.00;99.90;;;;;;6242564;23;19992;-94
2020/12/20 06:33:19;;;;;;;9.67;5.90;;;5.00;99.90;;;;;;6214746;23;19988;-94
2020/12/20 06:35:49;;;;;;;10.53;5.80;;;5.00;99.90;;;;;;6216737;23;19996;-93
2020/12/20 06:38:19;;;;;;;9.00;5.77;;;5.00;99.90;;;;;;6216106;23;20014;-95
2020/12/20 06:40:45;;;;;;;7.90;5.40;;;5.00;99.90;;;;;;6215802;23;20016;-95
2020/12/20 06:43:13;;;;;;;10.30;5.57;;;5.00;99.90;;;;;;6216714;23;19988;-95
2020/12/20 06:45:42;;;;;;;9.60;5.97;;;4.90;99.90;;;;;;6216338;23;20036;-96
2020/12/20 06:48:09;;;;;;;9.53;6.10;;;4.90;99.90;;;;;;6215966;23;19985;-96
2020/12/20 06:50:48;;;;;;;8.33;5.70;;;5.00;99.90;;;;;;6216468;23;20016;-96
2020/12/20 06:53:16;;;;;;;10.03;5.60;;;4.90;99.90;;;;;;6215452;23;20008;-95
